Greenville, NC

12:22 PM EDT on March 28, 2015 (GMT -0400)
ECU Main Campus | | Change Station
CLOSE
Current Station
Personal Weather Station
Location: Greenville, NC
Elevation: 59 ft
Nearby Weather Stations
Active Advisory: Freeze Warning

Elev 59 ft 35.61 °N, 77.37 °W | Updated 58 seconds ago

Overcast
Overcast
41.9 °F
Feels Like 40 °F
N
4.0
Wind Variable Wind from North
Gusts 7.0 mph

Today
High -- | Low -- °F
--% Chance of Precip.
Yesterday
High -- | Low -- °F
Precip. -- in
7:02 AM 7:27 PM
Waxing Gibbous, 63% visible
Pressure 30.04 in
Visibility 10.0 miles
Clouds Scattered Clouds 2800 ft
Mostly Cloudy 3700 ft
Overcast 4600 ft
Windchill 40 °F
Dew Point 27 °F
Humidity 56%
Rainfall 0.00 in
Snow Depth Not available.
UV 1.6 out of 12
Pollen 9.40 out of 12
Air Quality Not available.
Flu Activity Not available.
METAR KPGV 281555Z AUTO 36007KT 10SM SCT028 BKN037 OVC046 05/M01 A3004 RMK AO2

More Conditions Fewer Conditions

Pressure 30.04 in
Visibility 10.0 miles
Clouds Scattered Clouds 2800 ft
Mostly Cloudy 3700 ft
Overcast 4600 ft
Windchill 40 °F
Dew Point 27 °F
Humidity 56%
Rainfall 0.00 in
Snow Depth Not available.
UV 1.6 out of 12
Pollen 9.40 out of 12
Air Quality Not available.
Flu Activity Not available.
METAR KPGV 281555Z AUTO 36007KT 10SM SCT028 BKN037 OVC046 05/M01 A3004 RMK AO2

More Conditions Fewer Conditions

10-Day Weather Forecast

Almanac

Astronomy

Mar. 28, 2015 Rise Set
Actual Time
Civil Twilight
Nautical Twilight
Astronomical Twilight
Moon
Length of Visible Light
Length of Day
Tomorrow will be .
, % of the Moon is Illuminated

Today's Extremes

State Highs State Lows

Community

WunderPhotos

Upload Photos

1,809,020 photos uploaded!

WunderBlogs® & News

Nearby

Air Quality

  Air Quality AQ Index Pollutant
Not available.

Snow Depth

Station Depth Elevation

Earthquake Activity

City Distance Mag. Time & Date
Minimum magnitude displayed is 2.5.

Coastal Water Temperatures

Place Temperature

Stations

Nearby Weather Stations

Station Location Temp. Windchill Dew Point Humidity Wind Precip. Elev Updated Type
                   
Freeze Warning
Statement as of 7:12 AM EDT on March 28, 2015

... Freeze warning remains in effect from 1 am to 8 am EDT
Sunday...

* temperatures... mid to upper 20s inland... and upper 20s to lower
30s along the coast.

* Timing... tonight into early Sunday morning.

* Impacts... cold temperatures will damage or kill sensitive
plants.

Precautionary/preparedness actions...

A freeze warning means sub-freezing temperatures are imminent or
highly likely. These conditions will kill crops and other
sensitive vegetation.